createdAt,value
2018-07-05T00:00:54.148Z,82.20
2018-07-05T00:05:08.676Z,83.20
2018-07-05T00:09:23.488Z,82.80
2018-07-05T00:13:38.148Z,82.50
2018-07-05T00:17:52.737Z,83.00
2018-07-05T00:22:07.286Z,82.50
2018-07-05T00:26:21.824Z,82.30
2018-07-05T00:30:36.504Z,83.10
2018-07-05T00:34:50.917Z,83.60
2018-07-05T00:39:05.997Z,84.40
2018-07-05T00:43:20.524Z,84.30
2018-07-05T00:47:35.021Z,84.40
2018-07-05T00:51:49.600Z,84.00
2018-07-05T00:56:04.112Z,84.00
2018-07-05T01:00:18.582Z,84.10
2018-07-05T01:04:33.225Z,84.10
2018-07-05T01:08:47.785Z,84.60
2018-07-05T01:13:02.546Z,84.30
2018-07-05T01:17:17.149Z,84.30
2018-07-05T01:21:31.885Z,85.60
2018-07-05T01:25:46.470Z,86.00
2018-07-05T01:30:01.084Z,86.40
2018-07-05T01:34:15.717Z,86.00
2018-07-05T01:38:30.397Z,85.40
2018-07-05T01:42:45.153Z,85.30
2018-07-05T01:46:59.622Z,85.40
2018-07-05T01:51:14.318Z,84.90
2018-07-05T01:55:28.896Z,84.90
2018-07-05T01:59:43.625Z,85.40
2018-07-05T02:03:58.169Z,85.30
2018-07-05T02:08:12.872Z,85.40
2018-07-05T02:12:27.509Z,86.00
2018-07-05T02:16:42.181Z,86.40
2018-07-05T02:20:56.817Z,86.50
2018-07-05T02:25:11.370Z,87.30
2018-07-05T02:29:25.965Z,87.60
2018-07-05T02:33:40.488Z,86.70
2018-07-05T02:38:00.715Z,87.00
2018-07-05T02:42:15.324Z,87.30
2018-07-05T02:46:29.797Z,88.50
2018-07-05T02:50:44.482Z,88.90
2018-07-05T02:54:59.186Z,88.90
2018-07-05T02:59:13.916Z,88.50
2018-07-05T03:03:29.048Z,88.50
2018-07-05T03:07:43.462Z,88.70
2018-07-05T03:11:58.133Z,89.40
2018-07-05T03:16:12.821Z,89.60
2018-07-05T03:20:27.551Z,89.50
2018-07-05T03:24:42.247Z,89.50
2018-07-05T03:28:56.777Z,90.00
2018-07-05T03:33:11.987Z,90.20
2018-07-05T03:37:26.466Z,90.20
2018-07-05T03:45:50.164Z,89.90
2018-07-05T03:50:04.741Z,89.70
2018-07-05T03:58:28.040Z,89.70
2018-07-05T04:02:42.802Z,88.40
2018-07-05T04:06:57.312Z,89.40
2018-07-05T04:11:11.993Z,90.20
2018-07-05T04:15:26.443Z,90.40
2018-07-05T04:23:54.109Z,90.90
2018-07-05T04:28:08.784Z,90.80
2018-07-05T04:32:23.347Z,90.70
2018-07-05T04:36:38.133Z,90.70
2018-07-05T04:40:52.774Z,90.60
2018-07-05T04:45:07.493Z,90.20
2018-07-05T04:49:22.020Z,90.00
2018-07-05T04:53:36.683Z,89.80
2018-07-05T04:57:51.168Z,88.90
2018-07-05T05:02:05.836Z,89.20
2018-07-05T05:06:20.651Z,88.90
2018-07-05T05:10:35.920Z,87.90
2018-07-05T05:14:50.487Z,87.60
2018-07-05T05:19:05.260Z,87.70
2018-07-05T05:23:19.921Z,88.00
2018-07-05T05:27:34.624Z,87.50
2018-07-05T05:31:49.990Z,87.10
2018-07-05T05:36:04.452Z,87.20
2018-07-05T05:40:19.249Z,86.90
2018-07-05T05:44:33.897Z,86.30
2018-07-05T05:48:48.574Z,85.60
2018-07-05T05:53:03.052Z,84.10
2018-07-05T05:57:17.737Z,84.00
2018-07-05T06:01:32.389Z,83.60
2018-07-05T06:05:47.370Z,83.70
2018-07-05T06:10:01.929Z,83.00
2018-07-05T06:14:16.524Z,81.90
2018-07-05T06:18:31.155Z,81.90
2018-07-05T06:22:45.903Z,81.40
2018-07-05T06:27:00.404Z,81.70
2018-07-05T06:31:15.018Z,81.10
2018-07-05T06:39:38.508Z,72.90
2018-07-05T06:43:52.968Z,73.60
2018-07-05T06:48:07.753Z,70.30
2018-07-05T06:52:22.414Z,71.10
2018-07-05T06:56:37.105Z,70.00
2018-07-05T07:00:51.757Z,69.80
2018-07-05T07:05:06.663Z,69.60
2018-07-05T07:09:21.181Z,67.40
2018-07-05T07:13:35.950Z,63.80
2018-07-05T07:17:50.548Z,63.40
2018-07-05T07:22:05.128Z,62.20
2018-07-05T07:26:20.420Z,62.50
2018-07-05T07:34:43.863Z,59.60
2018-07-05T07:38:58.389Z,61.00
2018-07-05T07:43:00.593Z,61.30
2018-07-05T07:51:05.258Z,58.90
2018-07-05T07:59:09.911Z,58.50
2018-07-05T08:03:12.116Z,59.10
2018-07-05T08:07:14.672Z,59.90
2018-07-05T08:11:16.873Z,63.40
2018-07-05T08:19:21.550Z,62.50
2018-07-05T08:23:23.761Z,62.00
2018-07-05T08:27:25.964Z,62.80
2018-07-05T08:31:28.237Z,62.70
2018-07-05T08:35:30.516Z,63.30
2018-07-05T08:39:32.732Z,59.90
2018-07-05T08:43:34.948Z,61.70
2018-07-05T08:47:37.149Z,61.60
2018-07-05T08:51:39.352Z,58.30
2018-07-05T08:55:41.573Z,58.90
2018-07-05T08:59:43.793Z,60.80
2018-07-05T09:03:45.995Z,59.60
2018-07-05T09:07:48.192Z,57.30
2018-07-05T09:11:50.864Z,56.20
2018-07-05T09:15:53.069Z,56.00
2018-07-05T09:19:55.275Z,56.20
2018-07-05T09:23:57.486Z,56.10
2018-07-05T09:27:59.685Z,57.40
2018-07-05T09:32:01.885Z,56.70
2018-07-05T09:36:04.093Z,56.70
2018-07-05T09:40:06.302Z,55.30
2018-07-05T09:44:08.501Z,54.80
2018-07-05T09:48:10.710Z,53.90
2018-07-05T09:52:12.905Z,53.60
2018-07-05T09:56:15.105Z,54.10
2018-07-05T10:00:17.332Z,54.50
2018-07-05T10:04:19.528Z,53.50
2018-07-05T10:12:24.173Z,56.50
2018-07-05T10:16:26.372Z,54.40
2018-07-05T10:24:31.064Z,53.10
2018-07-05T10:28:33.269Z,53.50
2018-07-05T10:32:47.904Z,53.30
2018-07-05T10:36:50.040Z,55.40
2018-07-05T10:41:04.639Z,55.90
2018-07-05T10:45:19.309Z,55.00
2018-07-05T10:49:33.986Z,55.10
2018-07-05T10:57:57.077Z,52.30
2018-07-05T11:02:11.750Z,52.20
2018-07-05T11:06:26.468Z,53.10
2018-07-05T11:10:41.144Z,52.30
2018-07-05T11:14:55.793Z,50.40
2018-07-05T11:19:10.536Z,49.40
2018-07-05T11:23:25.103Z,46.00
2018-07-05T11:27:39.901Z,43.70
2018-07-05T11:36:03.245Z,41.60
2018-07-05T11:40:17.844Z,40.10
2018-07-05T11:44:32.510Z,38.60
2018-07-05T11:48:47.223Z,39.50
2018-07-05T11:53:01.766Z,36.60
2018-07-05T11:57:16.484Z,34.70
2018-07-05T12:01:31.221Z,38.20
2018-07-05T12:05:45.904Z,38.00
2018-07-05T12:14:09.313Z,38.40
2018-07-05T12:18:23.981Z,37.70
2018-07-05T12:22:38.590Z,35.70
2018-07-05T12:26:53.492Z,36.20
2018-07-05T12:31:08.228Z,38.00
2018-07-05T12:35:22.839Z,42.00
2018-07-05T12:39:37.641Z,43.20
2018-07-05T12:43:52.258Z,41.70
2018-07-05T12:48:06.864Z,40.00
2018-07-05T12:52:21.518Z,40.00
2018-07-05T12:56:36.159Z,43.00
2018-07-05T13:00:50.790Z,44.40
2018-07-05T13:05:05.376Z,44.60
2018-07-05T13:13:28.603Z,45.30
2018-07-05T13:17:43.352Z,45.70
2018-07-05T13:21:57.977Z,44.40
2018-07-05T13:26:12.884Z,42.50
2018-07-05T13:30:27.446Z,37.80
2018-07-05T13:34:42.150Z,38.70
2018-07-05T13:43:05.495Z,38.80
2018-07-05T13:47:20.205Z,39.00
2018-07-05T13:51:34.888Z,38.50
2018-07-05T13:55:49.529Z,38.50
2018-07-05T14:00:04.224Z,38.40
2018-07-05T14:04:18.655Z,39.40
2018-07-05T14:08:33.389Z,40.70
2018-07-05T14:16:56.548Z,39.40
2018-07-05T14:21:11.321Z,38.10
2018-07-05T14:25:25.973Z,37.70
2018-07-05T14:29:40.744Z,38.30
2018-07-05T14:33:55.217Z,37.00
2018-07-05T14:38:09.885Z,37.60
2018-07-05T14:42:24.608Z,37.60
2018-07-05T14:46:39.129Z,36.60
2018-07-05T14:55:02.581Z,33.90
2018-07-05T14:59:17.276Z,34.90
2018-07-05T15:07:40.310Z,34.20
2018-07-05T15:11:55.126Z,35.40
2018-07-05T15:16:09.772Z,37.50
2018-07-05T15:20:24.257Z,38.10
2018-07-05T15:24:38.924Z,39.50
2018-07-05T15:28:53.532Z,40.30
2018-07-05T15:33:08.069Z,41.10
2018-07-05T15:37:22.673Z,41.70
2018-07-05T15:41:37.133Z,42.80
2018-07-05T15:45:51.781Z,41.20
2018-07-05T15:50:06.493Z,41.30
2018-07-05T15:54:21.332Z,42.00
2018-07-05T15:58:35.935Z,41.40
2018-07-05T16:02:50.601Z,42.40
2018-07-05T16:07:05.224Z,42.30
2018-07-05T16:11:19.888Z,41.60
2018-07-05T16:15:34.572Z,40.70
2018-07-05T16:19:49.308Z,39.80
2018-07-05T16:24:03.840Z,39.20
2018-07-05T16:28:18.376Z,38.60
2018-07-05T16:32:33.017Z,38.70
2018-07-05T16:36:47.528Z,38.30
2018-07-05T16:41:02.213Z,39.70
2018-07-05T16:45:16.887Z,39.10
2018-07-05T16:49:31.511Z,39.90
2018-07-05T16:53:46.002Z,39.70
2018-07-05T16:58:00.577Z,40.40
2018-07-05T17:02:15.180Z,40.60
2018-07-05T17:10:38.567Z,39.80
2018-07-05T17:14:53.145Z,39.20
2018-07-05T17:19:07.743Z,38.60
2018-07-05T17:23:22.270Z,37.60
2018-07-05T17:27:36.848Z,37.70
2018-07-05T17:31:51.404Z,38.90
2018-07-05T17:36:06.034Z,38.40
2018-07-05T17:40:20.736Z,37.40
2018-07-05T17:44:35.421Z,37.70
2018-07-05T17:48:49.864Z,37.20
2018-07-05T17:53:04.573Z,35.90
2018-07-05T17:57:19.134Z,35.80
2018-07-05T18:01:33.717Z,36.10
2018-07-05T18:05:48.349Z,35.80
2018-07-05T18:10:03.162Z,34.00
2018-07-05T18:14:17.646Z,33.40
2018-07-05T18:22:40.745Z,34.90
2018-07-05T18:31:04.952Z,35.90
2018-07-05T18:35:19.529Z,35.50
2018-07-05T18:39:34.225Z,34.70
2018-07-05T18:43:48.824Z,34.30
2018-07-05T18:48:03.604Z,34.10
2018-07-05T18:52:18.193Z,34.50
2018-07-05T18:56:32.880Z,34.30
2018-07-05T19:00:47.452Z,35.20
2018-07-05T19:05:02.079Z,36.10
2018-07-05T19:09:16.784Z,37.80
2018-07-05T19:13:31.299Z,38.30
2018-07-05T19:17:46.044Z,38.90
2018-07-05T19:22:00.926Z,39.30
2018-07-05T19:26:15.449Z,40.00
2018-07-05T19:30:30.233Z,40.60
2018-07-05T19:34:44.800Z,41.00
2018-07-05T19:38:59.409Z,41.70
2018-07-05T19:43:14.042Z,41.90
2018-07-05T19:47:28.471Z,42.50
2018-07-05T19:51:42.876Z,43.30
2018-07-05T19:55:57.476Z,43.80
2018-07-05T20:00:12.129Z,44.50
2018-07-05T20:04:26.697Z,45.00
2018-07-05T20:08:41.287Z,45.80
2018-07-05T20:12:55.900Z,46.70
2018-07-05T20:17:10.433Z,47.20
2018-07-05T20:21:24.886Z,47.80
2018-07-05T20:25:39.517Z,48.40
2018-07-05T20:29:54.110Z,48.90
2018-07-05T20:34:08.698Z,49.40
2018-07-05T20:38:23.364Z,49.80
2018-07-05T20:42:38.117Z,50.10
2018-07-05T20:46:52.726Z,50.20
2018-07-05T20:51:07.364Z,50.50
2018-07-05T20:55:22.114Z,50.60
2018-07-05T20:59:36.734Z,51.00
2018-07-05T21:03:51.251Z,50.90
2018-07-05T21:08:05.977Z,51.50
2018-07-05T21:12:20.664Z,51.40
2018-07-05T21:16:35.334Z,51.60
2018-07-05T21:20:49.947Z,52.30
2018-07-05T21:25:04.788Z,52.50
2018-07-05T21:29:19.753Z,53.00
2018-07-05T21:33:34.398Z,52.90
2018-07-05T21:37:49.033Z,52.80
2018-07-05T21:42:03.700Z,52.80
2018-07-05T21:46:18.917Z,52.70
2018-07-05T21:50:33.388Z,52.20
2018-07-05T21:54:48.630Z,52.50
2018-07-05T21:59:03.233Z,52.90
2018-07-05T22:03:17.940Z,53.50
2018-07-05T22:07:32.727Z,53.90
2018-07-05T22:11:47.440Z,54.40
2018-07-05T22:16:02.047Z,54.50
2018-07-05T22:20:22.177Z,54.90
2018-07-05T22:24:42.189Z,55.60
2018-07-05T22:34:14.835Z,56.30
2018-07-05T22:42:37.903Z,57.80
2018-07-05T22:46:52.576Z,58.50
2018-07-05T22:51:07.132Z,58.40
2018-07-05T22:55:21.897Z,59.20
2018-07-05T22:59:36.624Z,59.60
2018-07-05T23:03:51.402Z,59.60
2018-07-05T23:08:05.938Z,60.10
2018-07-05T23:12:20.437Z,60.40
2018-07-05T23:16:35.267Z,61.20
2018-07-05T23:20:50.023Z,62.00
2018-07-05T23:25:05.736Z,62.80
2018-07-05T23:29:20.497Z,64.20
2018-07-05T23:33:35.085Z,65.30
2018-07-05T23:37:50.058Z,66.30
2018-07-05T23:42:04.522Z,67.30
2018-07-05T23:46:19.366Z,68.00
2018-07-05T23:50:33.959Z,68.70
2018-07-05T23:54:48.660Z,69.60
2018-07-05T23:59:03.350Z,70.00
